sensor_id;sensor_type;location;lat;lon;timestamp;pressure;altitude;pressure_sealevel;temperature;humidity
15477;BME280;7840;42.702;23.296;2022-08-06T00:00:53;94895.31;;;21.47;62.57
15477;BME280;7840;42.702;23.296;2022-08-06T00:03:21;94893.72;;;21.46;62.62
15477;BME280;7840;42.702;23.296;2022-08-06T00:05:48;94896.56;;;21.58;62.57
15477;BME280;7840;42.702;23.296;2022-08-06T00:08:16;94897.66;;;21.66;62.25
15477;BME280;7840;42.702;23.296;2022-08-06T00:10:45;94903.84;;;21.66;62.63
15477;BME280;7840;42.702;23.296;2022-08-06T00:13:13;94897.81;;;21.61;63.18
15477;BME280;7840;42.702;23.296;2022-08-06T00:15:40;94909.22;;;21.66;63.20
15477;BME280;7840;42.702;23.296;2022-08-06T00:18:08;94917.47;;;21.70;62.96
15477;BME280;7840;42.702;23.296;2022-08-06T00:20:36;94910.50;;;21.60;63.38
15477;BME280;7840;42.702;23.296;2022-08-06T00:23:06;94914.31;;;21.59;63.51
15477;BME280;7840;42.702;23.296;2022-08-06T00:25:33;94910.19;;;21.53;63.38
15477;BME280;7840;42.702;23.296;2022-08-06T00:28:03;94904.97;;;21.56;63.40
15477;BME280;7840;42.702;23.296;2022-08-06T00:30:31;94913.84;;;21.57;63.42
15477;BME280;7840;42.702;23.296;2022-08-06T00:33:18;94912.75;;;21.58;63.30
15477;BME280;7840;42.702;23.296;2022-08-06T00:35:45;94906.38;;;21.54;63.32
15477;BME280;7840;42.702;23.296;2022-08-06T00:38:13;94911.63;;;21.50;62.82
15477;BME280;7840;42.702;23.296;2022-08-06T00:40:41;94913.06;;;21.48;63.29
15477;BME280;7840;42.702;23.296;2022-08-06T00:43:12;94909.59;;;21.39;63.59
15477;BME280;7840;42.702;23.296;2022-08-06T00:45:39;94910.50;;;21.25;65.10
15477;BME280;7840;42.702;23.296;2022-08-06T00:48:07;94921.31;;;21.08;66.77
15477;BME280;7840;42.702;23.296;2022-08-06T00:50:38;94912.59;;;20.94;67.80
15477;BME280;7840;42.702;23.296;2022-08-06T00:53:06;94916.16;;;20.63;69.44
15477;BME280;7840;42.702;23.296;2022-08-06T00:55:33;94917.47;;;20.35;71.39
15477;BME280;7840;42.702;23.296;2022-08-06T00:58:01;94914.03;;;20.43;71.66
15477;BME280;7840;42.702;23.296;2022-08-06T01:00:35;94920.50;;;20.42;71.71
15477;BME280;7840;42.702;23.296;2022-08-06T01:03:03;94924.69;;;20.48;71.57
15477;BME280;7840;42.702;23.296;2022-08-06T01:05:30;94922.22;;;20.38;72.00
15477;BME280;7840;42.702;23.296;2022-08-06T01:08:01;94932.28;;;20.15;73.22
15477;BME280;7840;42.702;23.296;2022-08-06T01:10:29;94924.53;;;19.82;74.49
15477;BME280;7840;42.702;23.296;2022-08-06T01:13:13;94908.66;;;20.03;73.90
15477;BME280;7840;42.702;23.296;2022-08-06T01:15:46;94913.94;;;20.17;73.74
15477;BME280;7840;42.702;23.296;2022-08-06T01:18:20;94911.22;;;20.08;73.22
15477;BME280;7840;42.702;23.296;2022-08-06T01:21:01;94904.59;;;20.14;72.94
15477;BME280;7840;42.702;23.296;2022-08-06T01:23:51;94913.91;;;20.08;73.07
15477;BME280;7840;42.702;23.296;2022-08-06T01:26:32;94913.44;;;20.06;73.04
15477;BME280;7840;42.702;23.296;2022-08-06T01:29:19;94912.44;;;20.02;73.38
15477;BME280;7840;42.702;23.296;2022-08-06T01:31:54;94908.94;;;19.93;73.45
15477;BME280;7840;42.702;23.296;2022-08-06T01:34:27;94911.16;;;19.91;73.12
15477;BME280;7840;42.702;23.296;2022-08-06T01:37:15;94908.94;;;19.93;73.64
15477;BME280;7840;42.702;23.296;2022-08-06T01:39:46;94916.09;;;19.98;72.66
15477;BME280;7840;42.702;23.296;2022-08-06T01:42:17;94908.91;;;19.84;73.01
15477;BME280;7840;42.702;23.296;2022-08-06T01:44:49;94908.59;;;19.86;72.44
15477;BME280;7840;42.702;23.296;2022-08-06T01:47:19;94911.53;;;19.76;71.94
15477;BME280;7840;42.702;23.296;2022-08-06T01:49:52;94912.28;;;19.67;71.80
15477;BME280;7840;42.702;23.296;2022-08-06T01:52:24;94915.47;;;19.70;71.84
15477;BME280;7840;42.702;23.296;2022-08-06T01:54:52;94910.94;;;19.56;72.24
15477;BME280;7840;42.702;23.296;2022-08-06T01:57:24;94915.94;;;19.49;72.31
15477;BME280;7840;42.702;23.296;2022-08-06T01:59:56;94906.00;;;19.50;72.47
15477;BME280;7840;42.702;23.296;2022-08-06T02:02:27;94909.03;;;19.34;72.83
15477;BME280;7840;42.702;23.296;2022-08-06T02:04:58;94898.69;;;19.28;73.00
15477;BME280;7840;42.702;23.296;2022-08-06T02:07:30;94895.31;;;19.36;73.16
15477;BME280;7840;42.702;23.296;2022-08-06T02:09:59;94892.47;;;19.41;73.08
15477;BME280;7840;42.702;23.296;2022-08-06T02:12:30;94893.69;;;19.35;73.39
15477;BME280;7840;42.702;23.296;2022-08-06T02:15:02;94896.75;;;19.42;73.09
15477;BME280;7840;42.702;23.296;2022-08-06T02:17:35;94889.31;;;19.39;73.41
15477;BME280;7840;42.702;23.296;2022-08-06T02:20:06;94889.22;;;19.22;74.24
15477;BME280;7840;42.702;23.296;2022-08-06T02:22:39;94891.75;;;19.04;75.01
15477;BME280;7840;42.702;23.296;2022-08-06T02:25:11;94886.94;;;18.79;76.79
15477;BME280;7840;42.702;23.296;2022-08-06T02:27:43;94881.78;;;18.82;76.81
15477;BME280;7840;42.702;23.296;2022-08-06T02:30:13;94885.94;;;18.89;76.68
15477;BME280;7840;42.702;23.296;2022-08-06T02:32:52;94890.91;;;18.95;76.42
15477;BME280;7840;42.702;23.296;2022-08-06T02:35:20;94886.50;;;18.99;75.95
15477;BME280;7840;42.702;23.296;2022-08-06T02:37:52;94883.31;;;18.97;76.24
15477;BME280;7840;42.702;23.296;2022-08-06T02:40:27;94896.25;;;18.95;76.31
15477;BME280;7840;42.702;23.296;2022-08-06T02:43:05;94892.84;;;19.03;76.05
15477;BME280;7840;42.702;23.296;2022-08-06T02:45:43;94886.50;;;18.99;75.97
15477;BME280;7840;42.702;23.296;2022-08-06T02:48:20;94892.69;;;18.86;77.03
15477;BME280;7840;42.702;23.296;2022-08-06T02:50:51;94893.88;;;18.94;76.57
15477;BME280;7840;42.702;23.296;2022-08-06T02:53:23;94888.44;;;19.07;75.97
15477;BME280;7840;42.702;23.296;2022-08-06T02:55:55;94889.53;;;19.06;75.54
15477;BME280;7840;42.702;23.296;2022-08-06T02:58:31;94883.59;;;19.09;75.47
15477;BME280;7840;42.702;23.296;2022-08-06T03:01:09;94896.59;;;19.16;75.28
15477;BME280;7840;42.702;23.296;2022-08-06T03:03:38;94902.50;;;19.04;75.78
15477;BME280;7840;42.702;23.296;2022-08-06T03:06:09;94897.84;;;18.96;76.20
15477;BME280;7840;42.702;23.296;2022-08-06T03:08:39;94903.81;;;18.93;76.51
15477;BME280;7840;42.702;23.296;2022-08-06T03:11:08;94906.88;;;19.00;76.19
15477;BME280;7840;42.702;23.296;2022-08-06T03:13:38;94903.38;;;19.00;76.67
15477;BME280;7840;42.702;23.296;2022-08-06T03:16:07;94904.81;;;18.97;76.06
15477;BME280;7840;42.702;23.296;2022-08-06T03:18:36;94897.22;;;18.99;75.89
15477;BME280;7840;42.702;23.296;2022-08-06T03:21:05;94908.84;;;19.08;75.49
15477;BME280;7840;42.702;23.296;2022-08-06T03:23:35;94912.38;;;19.18;74.69
15477;BME280;7840;42.702;23.296;2022-08-06T03:26:08;94915.44;;;19.25;74.19
15477;BME280;7840;42.702;23.296;2022-08-06T03:29:02;94907.56;;;19.28;73.89
15477;BME280;7840;42.702;23.296;2022-08-06T03:31:33;94906.06;;;19.36;74.40
15477;BME280;7840;42.702;23.296;2022-08-06T03:34:02;94900.06;;;19.39;73.79
15477;BME280;7840;42.702;23.296;2022-08-06T03:36:32;94905.78;;;19.46;73.45
15477;BME280;7840;42.702;23.296;2022-08-06T03:39:03;94902.19;;;19.51;72.89
15477;BME280;7840;42.702;23.296;2022-08-06T03:41:35;94903.94;;;19.55;73.09
15477;BME280;7840;42.702;23.296;2022-08-06T03:44:03;94898.88;;;19.54;73.49
15477;BME280;7840;42.702;23.296;2022-08-06T03:46:37;94903.94;;;19.55;73.52
15477;BME280;7840;42.702;23.296;2022-08-06T03:49:08;94899.81;;;19.49;74.24
15477;BME280;7840;42.702;23.296;2022-08-06T03:51:37;94908.75;;;19.36;74.84
15477;BME280;7840;42.702;23.296;2022-08-06T03:54:07;94907.75;;;19.32;75.74
15477;BME280;7840;42.702;23.296;2022-08-06T03:56:37;94901.75;;;19.35;75.50
15477;BME280;7840;42.702;23.296;2022-08-06T03:59:07;94906.22;;;19.39;75.30
15477;BME280;7840;42.702;23.296;2022-08-06T04:01:41;94907.22;;;19.44;75.42
15477;BME280;7840;42.702;23.296;2022-08-06T04:04:17;94910.97;;;19.20;75.55
15477;BME280;7840;42.702;23.296;2022-08-06T04:06:46;94920.44;;;19.18;76.02
15477;BME280;7840;42.702;23.296;2022-08-06T04:09:14;94913.31;;;19.35;75.75
15477;BME280;7840;42.702;23.296;2022-08-06T04:11:42;94922.91;;;19.50;75.33
15477;BME280;7840;42.702;23.296;2022-08-06T04:14:10;94919.22;;;19.68;74.18
15477;BME280;7840;42.702;23.296;2022-08-06T04:16:41;94926.56;;;19.77;73.77
15477;BME280;7840;42.702;23.296;2022-08-06T04:19:11;94918.63;;;19.72;74.30
15477;BME280;7840;42.702;23.296;2022-08-06T04:21:40;94925.59;;;19.73;74.63
15477;BME280;7840;42.702;23.296;2022-08-06T04:24:08;94925.31;;;19.83;74.53
15477;BME280;7840;42.702;23.296;2022-08-06T04:26:37;94926.13;;;19.83;74.08
15477;BME280;7840;42.702;23.296;2022-08-06T04:29:08;94924.78;;;20.03;74.03
15477;BME280;7840;42.702;23.296;2022-08-06T04:31:40;94933.38;;;19.83;74.17
15477;BME280;7840;42.702;23.296;2022-08-06T04:34:12;94933.50;;;20.09;73.30
15477;BME280;7840;42.702;23.296;2022-08-06T04:36:40;94925.22;;;20.28;72.42
15477;BME280;7840;42.702;23.296;2022-08-06T04:39:08;94929.00;;;20.27;71.82
15477;BME280;7840;42.702;23.296;2022-08-06T04:41:37;94940.00;;;20.08;72.62
15477;BME280;7840;42.702;23.296;2022-08-06T04:44:15;94940.56;;;20.27;72.05
15477;BME280;7840;42.702;23.296;2022-08-06T04:46:48;94940.81;;;20.48;70.84
15477;BME280;7840;42.702;23.296;2022-08-06T04:49:19;94940.22;;;20.60;69.84
15477;BME280;7840;42.702;23.296;2022-08-06T04:51:47;94937.41;;;20.73;69.35
15477;BME280;7840;42.702;23.296;2022-08-06T04:54:25;94939.31;;;20.82;68.49
15477;BME280;7840;42.702;23.296;2022-08-06T04:56:53;94943.59;;;20.83;67.87
15477;BME280;7840;42.702;23.296;2022-08-06T04:59:21;94938.06;;;20.96;67.55
15477;BME280;7840;42.702;23.296;2022-08-06T05:01:50;94949.44;;;20.85;68.15
15477;BME280;7840;42.702;23.296;2022-08-06T05:04:18;94946.47;;;21.03;67.37
15477;BME280;7840;42.702;23.296;2022-08-06T05:06:54;94945.97;;;20.93;67.49
15477;BME280;7840;42.702;23.296;2022-08-06T05:09:24;94957.69;;;20.80;67.63
15477;BME280;7840;42.702;23.296;2022-08-06T05:11:54;94948.38;;;21.03;66.93
15477;BME280;7840;42.702;23.296;2022-08-06T05:14:29;94944.75;;;21.16;65.93
15477;BME280;7840;42.702;23.296;2022-08-06T05:16:59;94942.41;;;21.32;65.43
15477;BME280;7840;42.702;23.296;2022-08-06T05:19:33;94955.06;;;21.32;64.91
15477;BME280;7840;42.702;23.296;2022-08-06T05:22:02;94952.38;;;21.40;63.73
15477;BME280;7840;42.702;23.296;2022-08-06T05:24:32;94944.47;;;21.35;64.55
15477;BME280;7840;42.702;23.296;2022-08-06T05:27:00;94949.34;;;21.24;64.62
15477;BME280;7840;42.702;23.296;2022-08-06T05:29:28;94942.84;;;21.60;63.66
15477;BME280;7840;42.702;23.296;2022-08-06T05:31:59;94953.31;;;21.53;64.56
15477;BME280;7840;42.702;23.296;2022-08-06T05:34:30;94948.09;;;21.56;64.13
15477;BME280;7840;42.702;23.296;2022-08-06T05:36:57;94950.00;;;21.65;64.07
15477;BME280;7840;42.702;23.296;2022-08-06T05:39:25;94951.59;;;21.57;62.91
15477;BME280;7840;42.702;23.296;2022-08-06T05:41:53;94957.38;;;21.94;62.09
15477;BME280;7840;42.702;23.296;2022-08-06T05:44:21;94953.28;;;21.88;61.83
15477;BME280;7840;42.702;23.296;2022-08-06T05:46:52;94955.94;;;22.05;62.26
15477;BME280;7840;42.702;23.296;2022-08-06T05:49:39;94955.09;;;22.30;60.42
15477;BME280;7840;42.702;23.296;2022-08-06T05:52:36;94951.81;;;22.54;59.28
15477;BME280;7840;42.702;23.296;2022-08-06T05:55:14;94951.16;;;22.57;59.09
15477;BME280;7840;42.702;23.296;2022-08-06T05:57:49;94946.84;;;22.27;58.83
15477;BME280;7840;42.702;23.296;2022-08-06T06:00:20;94943.56;;;22.51;58.87
15477;BME280;7840;42.702;23.296;2022-08-06T06:02:50;94946.25;;;22.89;57.33
15477;BME280;7840;42.702;23.296;2022-08-06T06:05:21;94948.34;;;23.13;56.42
15477;BME280;7840;42.702;23.296;2022-08-06T06:07:50;94949.38;;;23.00;56.02
15477;BME280;7840;42.702;23.296;2022-08-06T06:10:18;94940.78;;;22.98;57.34
15477;BME280;7840;42.702;23.296;2022-08-06T06:12:48;94942.94;;;23.13;55.88
15477;BME280;7840;42.702;23.296;2022-08-06T06:15:17;94945.16;;;23.11;56.87
15477;BME280;7840;42.702;23.296;2022-08-06T06:18:01;94936.31;;;23.43;55.68
15477;BME280;7840;42.702;23.296;2022-08-06T06:20:40;94941.34;;;23.74;53.76
15477;BME280;7840;42.702;23.296;2022-08-06T06:23:17;94930.56;;;23.99;53.05
15477;BME280;7840;42.702;23.296;2022-08-06T06:25:54;94936.09;;;24.02;52.47
15477;BME280;7840;42.702;23.296;2022-08-06T06:28:30;94927.97;;;23.90;53.01
15477;BME280;7840;42.702;23.296;2022-08-06T06:31:04;94933.63;;;24.22;52.09
15477;BME280;7840;42.702;23.296;2022-08-06T06:33:42;94934.44;;;24.22;52.08
15477;BME280;7840;42.702;23.296;2022-08-06T06:36:20;94929.31;;;24.09;52.01
15477;BME280;7840;42.702;23.296;2022-08-06T06:38:59;94922.34;;;24.08;53.19
15477;BME280;7840;42.702;23.296;2022-08-06T06:41:36;94924.19;;;24.16;52.41
15477;BME280;7840;42.702;23.296;2022-08-06T06:44:14;94926.66;;;24.21;52.51
15477;BME280;7840;42.702;23.296;2022-08-06T06:46:49;94915.41;;;24.55;53.21
15477;BME280;7840;42.702;23.296;2022-08-06T06:49:24;94914.94;;;24.90;51.93
15477;BME280;7840;42.702;23.296;2022-08-06T06:52:07;94916.22;;;25.05;51.26
15477;BME280;7840;42.702;23.296;2022-08-06T06:54:48;94911.59;;;25.33;49.82
15477;BME280;7840;42.702;23.296;2022-08-06T06:57:26;94901.63;;;25.65;48.74
15477;BME280;7840;42.702;23.296;2022-08-06T07:00:30;94906.25;;;25.93;48.96
15477;BME280;7840;42.702;23.296;2022-08-06T07:03:00;94908.91;;;26.05;47.71
15477;BME280;7840;42.702;23.296;2022-08-06T07:05:30;94903.41;;;26.17;47.27
15477;BME280;7840;42.702;23.296;2022-08-06T07:08:02;94913.00;;;26.43;46.64
15477;BME280;7840;42.702;23.296;2022-08-06T07:13:16;94894.13;;;26.66;46.75
15477;BME280;7840;42.702;23.296;2022-08-06T07:15:53;94891.00;;;26.99;46.44
15477;BME280;7840;42.702;23.296;2022-08-06T07:18:24;94902.19;;;27.13;45.31
15477;BME280;7840;42.702;23.296;2022-08-06T07:20:55;94904.94;;;27.33;45.69
15477;BME280;7840;42.702;23.296;2022-08-06T07:23:27;94893.97;;;27.48;45.25
15477;BME280;7840;42.702;23.296;2022-08-06T07:26:14;94894.91;;;27.75;45.57
15477;BME280;7840;42.702;23.296;2022-08-06T07:28:44;94893.81;;;26.87;46.13
15477;BME280;7840;42.702;23.296;2022-08-06T07:31:14;94891.38;;;26.82;46.63
15477;BME280;7840;42.702;23.296;2022-08-06T07:33:44;94882.94;;;26.87;47.10
15477;BME280;7840;42.702;23.296;2022-08-06T07:36:15;94879.31;;;26.98;46.30
15477;BME280;7840;42.702;23.296;2022-08-06T07:38:45;94877.16;;;27.43;45.63
15477;BME280;7840;42.702;23.296;2022-08-06T07:41:13;94876.53;;;27.69;44.79
15477;BME280;7840;42.702;23.296;2022-08-06T07:43:51;94874.50;;;28.08;44.45
15477;BME280;7840;42.702;23.296;2022-08-06T07:46:22;94877.13;;;27.62;44.50
15477;BME280;7840;42.702;23.296;2022-08-06T07:48:55;94864.13;;;27.33;45.26
15477;BME280;7840;42.702;23.296;2022-08-06T07:51:26;94873.00;;;27.68;45.36
15477;BME280;7840;42.702;23.296;2022-08-06T07:53:56;94868.47;;;27.76;44.63
15477;BME280;7840;42.702;23.296;2022-08-06T07:56:25;94871.84;;;27.89;44.22
15477;BME280;7840;42.702;23.296;2022-08-06T07:58:56;94869.91;;;28.12;44.11
15477;BME280;7840;42.702;23.296;2022-08-06T08:01:27;94866.63;;;28.03;43.72
15477;BME280;7840;42.702;23.296;2022-08-06T08:03:56;94866.47;;;28.15;43.45
15477;BME280;7840;42.702;23.296;2022-08-06T08:06:42;94864.59;;;28.42;42.63
15477;BME280;7840;42.702;23.296;2022-08-06T08:09:13;94865.91;;;28.52;42.33
15477;BME280;7840;42.702;23.296;2022-08-06T08:11:42;94863.81;;;28.95;42.24
15477;BME280;7840;42.702;23.296;2022-08-06T08:14:11;94861.28;;;29.39;41.22
15477;BME280;7840;42.702;23.296;2022-08-06T08:16:41;94867.75;;;29.27;40.46
15477;BME280;7840;42.702;23.296;2022-08-06T08:19:22;94871.16;;;29.17;40.89
15477;BME280;7840;42.702;23.296;2022-08-06T08:21:50;94858.03;;;29.60;40.65
15477;BME280;7840;42.702;23.296;2022-08-06T08:24:18;94862.75;;;30.04;39.72
15477;BME280;7840;42.702;23.296;2022-08-06T08:26:46;94865.09;;;30.46;38.66
15477;BME280;7840;42.702;23.296;2022-08-06T08:29:14;94855.16;;;30.68;38.33
15477;BME280;7840;42.702;23.296;2022-08-06T08:31:43;94858.56;;;31.20;36.04
15477;BME280;7840;42.702;23.296;2022-08-06T08:34:11;94849.38;;;31.67;35.41
15477;BME280;7840;42.702;23.296;2022-08-06T08:36:38;94855.34;;;32.05;34.55
15477;BME280;7840;42.702;23.296;2022-08-06T08:39:06;94857.75;;;32.35;33.26
15477;BME280;7840;42.702;23.296;2022-08-06T08:41:39;94853.84;;;32.39;33.90
15477;BME280;7840;42.702;23.296;2022-08-06T08:44:08;94863.59;;;32.23;34.18
15477;BME280;7840;42.702;23.296;2022-08-06T08:46:38;94858.91;;;32.30;34.18
15477;BME280;7840;42.702;23.296;2022-08-06T08:49:12;94856.97;;;32.52;34.11
15477;BME280;7840;42.702;23.296;2022-08-06T08:51:41;94846.38;;;32.86;33.73
15477;BME280;7840;42.702;23.296;2022-08-06T08:54:16;94843.91;;;33.20;33.74
15477;BME280;7840;42.702;23.296;2022-08-06T08:56:45;94847.72;;;33.55;31.98
15477;BME280;7840;42.702;23.296;2022-08-06T08:59:42;94848.03;;;33.75;32.03
15477;BME280;7840;42.702;23.296;2022-08-06T09:02:12;94847.28;;;33.67;32.46
15477;BME280;7840;42.702;23.296;2022-08-06T09:04:42;94840.44;;;33.97;32.34
15477;BME280;7840;42.702;23.296;2022-08-06T09:07:10;94843.56;;;34.06;31.15
15477;BME280;7840;42.702;23.296;2022-08-06T09:09:38;94843.09;;;34.18;31.21
15477;BME280;7840;42.702;23.296;2022-08-06T09:12:07;94837.41;;;34.40;30.93
15477;BME280;7840;42.702;23.296;2022-08-06T09:14:36;94837.97;;;34.65;30.79
15477;BME280;7840;42.702;23.296;2022-08-06T09:17:07;94842.09;;;34.88;30.03
15477;BME280;7840;42.702;23.296;2022-08-06T09:19:38;94837.72;;;35.31;29.46
15477;BME280;7840;42.702;23.296;2022-08-06T09:22:07;94838.41;;;35.43;28.86
15477;BME280;7840;42.702;23.296;2022-08-06T09:24:39;94836.66;;;35.56;29.37
15477;BME280;7840;42.702;23.296;2022-08-06T09:27:09;94836.06;;;35.38;28.91
15477;BME280;7840;42.702;23.296;2022-08-06T09:29:48;94827.13;;;34.92;29.94
15477;BME280;7840;42.702;23.296;2022-08-06T09:32:36;94831.25;;;34.73;29.24
15477;BME280;7840;42.702;23.296;2022-08-06T09:35:18;94823.69;;;35.53;27.66
15477;BME280;7840;42.702;23.296;2022-08-06T09:37:49;94827.94;;;35.88;27.54
15477;BME280;7840;42.702;23.296;2022-08-06T09:40:18;94830.91;;;36.04;27.59
15477;BME280;7840;42.702;23.296;2022-08-06T09:42:48;94828.16;;;35.40;28.99
15477;BME280;7840;42.702;23.296;2022-08-06T09:45:19;94823.53;;;36.21;27.05
15477;BME280;7840;42.702;23.296;2022-08-06T09:47:48;94827.72;;;36.56;26.37
15477;BME280;7840;42.702;23.296;2022-08-06T09:50:35;94816.66;;;37.03;26.65
15477;BME280;7840;42.702;23.296;2022-08-06T09:53:05;94824.34;;;37.35;25.90
15477;BME280;7840;42.702;23.296;2022-08-06T09:55:33;94823.59;;;37.31;25.87
15477;BME280;7840;42.702;23.296;2022-08-06T09:58:01;94823.75;;;37.64;24.95
15477;BME280;7840;42.702;23.296;2022-08-06T10:00:30;94817.66;;;37.53;25.51
15477;BME280;7840;42.702;23.296;2022-08-06T10:03:00;94818.03;;;36.91;25.96
15477;BME280;7840;42.702;23.296;2022-08-06T10:05:28;94817.03;;;36.08;27.25
15477;BME280;7840;42.702;23.296;2022-08-06T10:08:08;94811.38;;;36.19;27.71
15477;BME280;7840;42.702;23.296;2022-08-06T10:10:41;94809.31;;;35.42;28.64
15477;BME280;7840;42.702;23.296;2022-08-06T10:13:15;94813.69;;;35.66;28.37
15477;BME280;7840;42.702;23.296;2022-08-06T10:15:43;94808.19;;;34.98;28.92
15477;BME280;7840;42.702;23.296;2022-08-06T10:18:33;94801.47;;;35.36;28.96
15477;BME280;7840;42.702;23.296;2022-08-06T10:21:04;94807.06;;;35.60;28.34
15477;BME280;7840;42.702;23.296;2022-08-06T10:23:46;94808.09;;;35.43;28.09
15477;BME280;7840;42.702;23.296;2022-08-06T10:26:19;94800.91;;;33.77;29.93
15477;BME280;7840;42.702;23.296;2022-08-06T10:28:52;94802.09;;;34.35;29.46
15477;BME280;7840;42.702;23.296;2022-08-06T10:31:21;94796.91;;;34.47;30.14
15477;BME280;7840;42.702;23.296;2022-08-06T10:33:57;94805.69;;;34.24;30.41
15477;BME280;7840;42.702;23.296;2022-08-06T10:38:59;94800.78;;;34.95;29.58
15477;BME280;7840;42.702;23.296;2022-08-06T10:41:28;94805.13;;;33.99;31.23
15477;BME280;7840;42.702;23.296;2022-08-06T10:43:57;94793.34;;;34.88;29.25
15477;BME280;7840;42.702;23.296;2022-08-06T10:46:26;94791.06;;;35.17;28.61
15477;BME280;7840;42.702;23.296;2022-08-06T10:48:54;94792.56;;;34.88;28.95
15477;BME280;7840;42.702;23.296;2022-08-06T10:51:23;94793.00;;;34.82;28.45
15477;BME280;7840;42.702;23.296;2022-08-06T10:53:58;94794.31;;;34.22;29.78
15477;BME280;7840;42.702;23.296;2022-08-06T10:56:26;94798.81;;;34.02;30.29
15477;BME280;7840;42.702;23.296;2022-08-06T10:58:55;94793.84;;;34.35;29.14
15477;BME280;7840;42.702;23.296;2022-08-06T11:01:28;94791.06;;;34.79;29.39
15477;BME280;7840;42.702;23.296;2022-08-06T11:04:17;94786.56;;;35.30;28.27
15477;BME280;7840;42.702;23.296;2022-08-06T11:07:09;94785.78;;;36.41;26.13
15477;BME280;7840;42.702;23.296;2022-08-06T11:09:53;94781.88;;;37.25;25.99
15477;BME280;7840;42.702;23.296;2022-08-06T11:12:36;94781.78;;;37.69;24.64
15477;BME280;7840;42.702;23.296;2022-08-06T11:15:07;94780.78;;;37.79;25.44
15477;BME280;7840;42.702;23.296;2022-08-06T11:17:43;94779.00;;;37.89;25.47
15477;BME280;7840;42.702;23.296;2022-08-06T11:20:38;94773.75;;;38.27;24.62
15477;BME280;7840;42.702;23.296;2022-08-06T11:23:23;94780.13;;;38.40;24.78
15477;BME280;7840;42.702;23.296;2022-08-06T11:26:00;94774.94;;;38.58;23.97
15477;BME280;7840;42.702;23.296;2022-08-06T11:28:56;94773.53;;;38.67;24.23
15477;BME280;7840;42.702;23.296;2022-08-06T11:31:40;94774.66;;;38.98;23.13
15477;BME280;7840;42.702;23.296;2022-08-06T11:34:20;94771.47;;;39.29;22.18
15477;BME280;7840;42.702;23.296;2022-08-06T11:37:03;94775.16;;;37.07;25.23
15477;BME280;7840;42.702;23.296;2022-08-06T11:42:46;94776.69;;;34.16;28.69
15477;BME280;7840;42.702;23.296;2022-08-06T11:45:19;94773.34;;;34.43;28.93
15477;BME280;7840;42.702;23.296;2022-08-06T11:48:06;94773.56;;;34.63;28.96
15477;BME280;7840;42.702;23.296;2022-08-06T11:50:34;94766.28;;;33.24;29.74
15477;BME280;7840;42.702;23.296;2022-08-06T11:53:01;94763.63;;;33.75;29.87
15477;BME280;7840;42.702;23.296;2022-08-06T11:55:31;94759.28;;;34.30;29.21
15477;BME280;7840;42.702;23.296;2022-08-06T11:58:20;94769.41;;;35.19;28.06
15477;BME280;7840;42.702;23.296;2022-08-06T12:00:56;94756.38;;;36.08;26.23
15477;BME280;7840;42.702;23.296;2022-08-06T12:03:37;94760.09;;;36.68;25.99
15477;BME280;7840;42.702;23.296;2022-08-06T12:06:19;94746.72;;;37.26;23.94
15477;BME280;7840;42.702;23.296;2022-08-06T12:09:15;94759.97;;;37.55;23.88
15477;BME280;7840;42.702;23.296;2022-08-06T12:11:45;94758.69;;;37.19;24.50
15477;BME280;7840;42.702;23.296;2022-08-06T12:14:37;94757.84;;;36.39;25.19
15477;BME280;7840;42.702;23.296;2022-08-06T12:17:10;94747.75;;;34.05;28.03
15477;BME280;7840;42.702;23.296;2022-08-06T12:19:43;94747.28;;;33.58;28.96
15477;BME280;7840;42.702;23.296;2022-08-06T12:22:18;94730.63;;;33.13;29.80
15477;BME280;7840;42.702;23.296;2022-08-06T12:24:50;94747.28;;;33.58;29.21
15477;BME280;7840;42.702;23.296;2022-08-06T12:27:18;94739.91;;;33.44;29.69
15477;BME280;7840;42.702;23.296;2022-08-06T12:29:48;94748.47;;;34.12;29.25
15477;BME280;7840;42.702;23.296;2022-08-06T12:32:22;94736.16;;;35.33;27.52
15477;BME280;7840;42.702;23.296;2022-08-06T12:34:56;94733.81;;;35.89;26.60
15477;BME280;7840;42.702;23.296;2022-08-06T12:37:33;94748.16;;;34.48;28.02
15477;BME280;7840;42.702;23.296;2022-08-06T12:40:02;94737.44;;;33.64;29.12
15477;BME280;7840;42.702;23.296;2022-08-06T12:42:47;94738.84;;;34.35;28.85
15477;BME280;7840;42.702;23.296;2022-08-06T12:45:20;94727.91;;;34.65;27.68
15477;BME280;7840;42.702;23.296;2022-08-06T12:47:57;94736.25;;;35.26;27.09
15477;BME280;7840;42.702;23.296;2022-08-06T12:50:25;94734.03;;;34.46;27.69
15477;BME280;7840;42.702;23.296;2022-08-06T12:53:04;94730.66;;;35.03;26.30
15477;BME280;7840;42.702;23.296;2022-08-06T12:55:33;94733.22;;;35.21;25.86
15477;BME280;7840;42.702;23.296;2022-08-06T12:58:02;94721.59;;;35.33;25.62
15477;BME280;7840;42.702;23.296;2022-08-06T13:00:31;94718.34;;;35.69;25.20
15477;BME280;7840;42.702;23.296;2022-08-06T13:02:59;94722.63;;;36.47;24.31
15477;BME280;7840;42.702;23.296;2022-08-06T13:05:27;94710.13;;;37.22;23.07
15477;BME280;7840;42.702;23.296;2022-08-06T13:07:56;94708.47;;;37.61;22.96
15477;BME280;7840;42.702;23.296;2022-08-06T13:10:25;94705.06;;;38.38;21.96
15477;BME280;7840;42.702;23.296;2022-08-06T13:12:57;94709.97;;;39.05;21.19
15477;BME280;7840;42.702;23.296;2022-08-06T13:15:26;94710.75;;;38.47;21.12
15477;BME280;7840;42.702;23.296;2022-08-06T13:18:13;94719.44;;;38.00;23.04
15477;BME280;7840;42.702;23.296;2022-08-06T13:20:44;94714.81;;;38.88;22.53
15477;BME280;7840;42.702;23.296;2022-08-06T13:23:28;94711.88;;;39.62;21.35
15477;BME280;7840;42.702;23.296;2022-08-06T13:25:58;94710.31;;;39.61;21.44
15477;BME280;7840;42.702;23.296;2022-08-06T13:28:26;94710.72;;;39.22;21.65
15477;BME280;7840;42.702;23.296;2022-08-06T13:30:54;94703.84;;;38.97;22.51
15477;BME280;7840;42.702;23.296;2022-08-06T13:33:24;94713.91;;;38.17;23.63
15477;BME280;7840;42.702;23.296;2022-08-06T13:36:04;94712.81;;;36.66;25.37
15477;BME280;7840;42.702;23.296;2022-08-06T13:38:34;94712.69;;;36.73;24.54